sensor_id;sensor_type;location;lat;lon;timestamp;temperature;humidity
24207;DHT22;12351;52.284;9.160;2022-11-24T00:00:09;6.50;99.90
24207;DHT22;12351;52.284;9.160;2022-11-24T00:02:56;6.50;99.90
24207;DHT22;12351;52.284;9.160;2022-11-24T00:05:43;6.50;99.90
24207;DHT22;12351;52.284;9.160;2022-11-24T00:08:30;6.50;99.90
24207;DHT22;12351;52.284;9.160;2022-11-24T00:11:20;6.50;99.90
24207;DHT22;12351;52.284;9.160;2022-11-24T00:14:08;6.50;99.90
24207;DHT22;12351;52.284;9.160;2022-11-24T00:16:56;6.50;99.90
24207;DHT22;12351;52.284;9.160;2022-11-24T00:19:42;6.50;99.90
24207;DHT22;12351;52.284;9.160;2022-11-24T00:22:30;6.60;99.90
24207;DHT22;12351;52.284;9.160;2022-11-24T00:25:17;6.60;99.90
24207;DHT22;12351;52.284;9.160;2022-11-24T00:28:04;6.70;99.90
24207;DHT22;12351;52.284;9.160;2022-11-24T00:30:52;6.70;99.90
24207;DHT22;12351;52.284;9.160;2022-11-24T00:33:39;6.70;99.90
24207;DHT22;12351;52.284;9.160;2022-11-24T00:36:28;6.80;99.90
24207;DHT22;12351;52.284;9.160;2022-11-24T00:39:15;6.80;99.90
24207;DHT22;12351;52.284;9.160;2022-11-24T00:42:02;6.80;99.90
24207;DHT22;12351;52.284;9.160;2022-11-24T00:44:49;6.90;99.90
24207;DHT22;12351;52.284;9.160;2022-11-24T00:47:37;6.90;99.90
24207;DHT22;12351;52.284;9.160;2022-11-24T00:50:24;6.90;99.90
24207;DHT22;12351;52.284;9.160;2022-11-24T00:53:11;6.90;99.90
24207;DHT22;12351;52.284;9.160;2022-11-24T00:55:59;6.90;99.90
24207;DHT22;12351;52.284;9.160;2022-11-24T00:58:46;7.00;99.90
24207;DHT22;12351;52.284;9.160;2022-11-24T01:01:33;7.00;99.90
24207;DHT22;12351;52.284;9.160;2022-11-24T01:04:20;7.00;99.90
24207;DHT22;12351;52.284;9.160;2022-11-24T01:07:07;7.10;99.90
24207;DHT22;12351;52.284;9.160;2022-11-24T01:09:55;7.10;99.90
24207;DHT22;12351;52.284;9.160;2022-11-24T01:12:42;7.10;99.90
24207;DHT22;12351;52.284;9.160;2022-11-24T01:15:29;7.20;99.90
24207;DHT22;12351;52.284;9.160;2022-11-24T01:18:16;7.20;99.90
24207;DHT22;12351;52.284;9.160;2022-11-24T01:21:03;7.20;99.90
24207;DHT22;12351;52.284;9.160;2022-11-24T01:23:51;7.30;99.90
24207;DHT22;12351;52.284;9.160;2022-11-24T01:26:38;7.30;99.90
24207;DHT22;12351;52.284;9.160;2022-11-24T01:29:25;7.30;99.90
24207;DHT22;12351;52.284;9.160;2022-11-24T01:32:12;7.30;99.90
24207;DHT22;12351;52.284;9.160;2022-11-24T01:34:59;7.40;99.90
24207;DHT22;12351;52.284;9.160;2022-11-24T01:37:46;7.40;99.90
24207;DHT22;12351;52.284;9.160;2022-11-24T01:40:34;7.50;99.90
24207;DHT22;12351;52.284;9.160;2022-11-24T01:43:21;7.50;99.90
24207;DHT22;12351;52.284;9.160;2022-11-24T01:51:54;7.60;99.90
24207;DHT22;12351;52.284;9.160;2022-11-24T01:54:46;7.60;99.90
24207;DHT22;12351;52.284;9.160;2022-11-24T01:57:35;7.60;99.90
24207;DHT22;12351;52.284;9.160;2022-11-24T02:00:22;7.60;99.90
24207;DHT22;12351;52.284;9.160;2022-11-24T02:03:11;7.70;99.90
24207;DHT22;12351;52.284;9.160;2022-11-24T02:06:02;7.70;99.90
24207;DHT22;12351;52.284;9.160;2022-11-24T02:08:51;7.70;99.90
24207;DHT22;12351;52.284;9.160;2022-11-24T02:11:39;7.80;99.90
24207;DHT22;12351;52.284;9.160;2022-11-24T02:14:28;7.80;99.90
24207;DHT22;12351;52.284;9.160;2022-11-24T02:17:15;7.80;99.90
24207;DHT22;12351;52.284;9.160;2022-11-24T02:20:07;7.80;99.90
24207;DHT22;12351;52.284;9.160;2022-11-24T02:25:49;7.80;99.90
24207;DHT22;12351;52.284;9.160;2022-11-24T02:28:34;7.80;99.90
24207;DHT22;12351;52.284;9.160;2022-11-24T02:31:24;7.80;99.90
24207;DHT22;12351;52.284;9.160;2022-11-24T02:34:12;7.80;99.90
24207;DHT22;12351;52.284;9.160;2022-11-24T02:37:00;7.80;99.90
24207;DHT22;12351;52.284;9.160;2022-11-24T02:39:46;7.80;99.90
24207;DHT22;12351;52.284;9.160;2022-11-24T02:42:36;7.80;99.90
24207;DHT22;12351;52.284;9.160;2022-11-24T02:45:24;7.80;99.90
24207;DHT22;12351;52.284;9.160;2022-11-24T02:48:14;7.90;99.90
24207;DHT22;12351;52.284;9.160;2022-11-24T02:51:01;7.90;99.90
24207;DHT22;12351;52.284;9.160;2022-11-24T02:53:48;7.80;99.90
24207;DHT22;12351;52.284;9.160;2022-11-24T02:56:36;7.90;99.90
24207;DHT22;12351;52.284;9.160;2022-11-24T02:59:23;7.90;99.90
24207;DHT22;12351;52.284;9.160;2022-11-24T03:02:10;7.90;99.90
24207;DHT22;12351;52.284;9.160;2022-11-24T03:04:57;7.90;99.90
24207;DHT22;12351;52.284;9.160;2022-11-24T03:07:45;7.80;99.90
24207;DHT22;12351;52.284;9.160;2022-11-24T03:10:32;7.80;99.90
24207;DHT22;12351;52.284;9.160;2022-11-24T03:13:19;7.80;99.90
24207;DHT22;12351;52.284;9.160;2022-11-24T03:16:08;7.90;99.90
24207;DHT22;12351;52.284;9.160;2022-11-24T03:18:55;7.80;99.90
24207;DHT22;12351;52.284;9.160;2022-11-24T03:21:42;7.80;99.90
24207;DHT22;12351;52.284;9.160;2022-11-24T03:24:29;7.80;99.90
24207;DHT22;12351;52.284;9.160;2022-11-24T03:27:16;7.80;99.90
24207;DHT22;12351;52.284;9.160;2022-11-24T03:30:03;7.80;99.90
24207;DHT22;12351;52.284;9.160;2022-11-24T03:32:51;7.80;99.90
24207;DHT22;12351;52.284;9.160;2022-11-24T03:35:39;7.80;99.90
24207;DHT22;12351;52.284;9.160;2022-11-24T03:38:25;7.80;99.90
24207;DHT22;12351;52.284;9.160;2022-11-24T03:41:12;7.80;99.90
24207;DHT22;12351;52.284;9.160;2022-11-24T03:43:59;7.80;99.90
24207;DHT22;12351;52.284;9.160;2022-11-24T03:46:47;7.80;99.90
24207;DHT22;12351;52.284;9.160;2022-11-24T03:49:34;7.80;99.90
24207;DHT22;12351;52.284;9.160;2022-11-24T03:52:21;7.70;99.90
24207;DHT22;12351;52.284;9.160;2022-11-24T03:55:09;7.70;99.90
24207;DHT22;12351;52.284;9.160;2022-11-24T03:57:56;7.80;99.90
24207;DHT22;12351;52.284;9.160;2022-11-24T04:00:44;7.80;99.90
24207;DHT22;12351;52.284;9.160;2022-11-24T04:03:31;7.80;99.90
24207;DHT22;12351;52.284;9.160;2022-11-24T04:06:18;7.70;99.90
24207;DHT22;12351;52.284;9.160;2022-11-24T04:09:06;7.80;99.90
24207;DHT22;12351;52.284;9.160;2022-11-24T04:11:53;7.70;99.90
24207;DHT22;12351;52.284;9.160;2022-11-24T04:14:41;7.70;99.90
24207;DHT22;12351;52.284;9.160;2022-11-24T04:17:28;7.70;99.90
24207;DHT22;12351;52.284;9.160;2022-11-24T04:20:16;7.70;99.90
24207;DHT22;12351;52.284;9.160;2022-11-24T04:23:03;7.70;99.90
24207;DHT22;12351;52.284;9.160;2022-11-24T04:25:50;7.70;99.90
24207;DHT22;12351;52.284;9.160;2022-11-24T04:28:37;7.70;99.90
24207;DHT22;12351;52.284;9.160;2022-11-24T04:31:24;7.70;99.90
24207;DHT22;12351;52.284;9.160;2022-11-24T04:34:12;7.70;99.90
24207;DHT22;12351;52.284;9.160;2022-11-24T04:36:59;7.70;99.90
24207;DHT22;12351;52.284;9.160;2022-11-24T04:39:45;7.70;99.90
24207;DHT22;12351;52.284;9.160;2022-11-24T04:42:33;7.60;99.90
24207;DHT22;12351;52.284;9.160;2022-11-24T04:45:20;7.60;99.90
24207;DHT22;12351;52.284;9.160;2022-11-24T04:48:08;7.70;99.90
24207;DHT22;12351;52.284;9.160;2022-11-24T04:50:55;7.70;99.90
24207;DHT22;12351;52.284;9.160;2022-11-24T04:53:42;7.70;99.90
24207;DHT22;12351;52.284;9.160;2022-11-24T04:56:29;7.60;99.90
24207;DHT22;12351;52.284;9.160;2022-11-24T04:59:16;7.60;99.90
24207;DHT22;12351;52.284;9.160;2022-11-24T05:02:03;7.70;99.90
24207;DHT22;12351;52.284;9.160;2022-11-24T05:04:50;7.70;99.90
24207;DHT22;12351;52.284;9.160;2022-11-24T05:07:37;7.70;99.90
24207;DHT22;12351;52.284;9.160;2022-11-24T05:10:24;7.60;99.90
24207;DHT22;12351;52.284;9.160;2022-11-24T05:13:13;7.70;99.90
24207;DHT22;12351;52.284;9.160;2022-11-24T05:16:00;7.70;99.90
24207;DHT22;12351;52.284;9.160;2022-11-24T05:18:47;7.80;99.90
24207;DHT22;12351;52.284;9.160;2022-11-24T05:21:35;7.80;99.90
24207;DHT22;12351;52.284;9.160;2022-11-24T05:24:22;7.80;99.90
24207;DHT22;12351;52.284;9.160;2022-11-24T05:27:09;7.80;99.90
24207;DHT22;12351;52.284;9.160;2022-11-24T05:29:56;7.90;99.90
24207;DHT22;12351;52.284;9.160;2022-11-24T05:32:43;7.90;99.90
24207;DHT22;12351;52.284;9.160;2022-11-24T05:35:30;7.90;99.90
24207;DHT22;12351;52.284;9.160;2022-11-24T05:38:18;8.00;99.90
24207;DHT22;12351;52.284;9.160;2022-11-24T05:41:06;7.90;99.90
24207;DHT22;12351;52.284;9.160;2022-11-24T05:43:53;7.90;99.90
24207;DHT22;12351;52.284;9.160;2022-11-24T05:46:40;7.90;99.90
24207;DHT22;12351;52.284;9.160;2022-11-24T05:49:27;7.90;99.90
24207;DHT22;12351;52.284;9.160;2022-11-24T05:52:15;7.90;99.90
24207;DHT22;12351;52.284;9.160;2022-11-24T05:55:04;7.90;99.90
24207;DHT22;12351;52.284;9.160;2022-11-24T05:57:56;7.90;99.90
24207;DHT22;12351;52.284;9.160;2022-11-24T06:00:41;7.90;99.90
24207;DHT22;12351;52.284;9.160;2022-11-24T06:03:28;7.90;99.90
24207;DHT22;12351;52.284;9.160;2022-11-24T06:06:15;8.00;99.90
24207;DHT22;12351;52.284;9.160;2022-11-24T06:09:03;8.00;99.90
24207;DHT22;12351;52.284;9.160;2022-11-24T06:11:50;8.00;99.90
24207;DHT22;12351;52.284;9.160;2022-11-24T06:14:38;8.00;99.90
24207;DHT22;12351;52.284;9.160;2022-11-24T06:17:25;7.90;99.90
24207;DHT22;12351;52.284;9.160;2022-11-24T06:20:12;8.00;99.90
24207;DHT22;12351;52.284;9.160;2022-11-24T06:23:00;8.00;99.90
24207;DHT22;12351;52.284;9.160;2022-11-24T06:25:48;7.90;99.90
24207;DHT22;12351;52.284;9.160;2022-11-24T06:28:35;8.00;99.90
24207;DHT22;12351;52.284;9.160;2022-11-24T06:31:22;8.00;99.90
24207;DHT22;12351;52.284;9.160;2022-11-24T06:36:59;8.00;99.90
24207;DHT22;12351;52.284;9.160;2022-11-24T06:39:47;8.00;99.90
24207;DHT22;12351;52.284;9.160;2022-11-24T06:42:34;8.00;99.90
24207;DHT22;12351;52.284;9.160;2022-11-24T06:45:22;8.10;99.90
24207;DHT22;12351;52.284;9.160;2022-11-24T06:48:09;8.10;99.90
24207;DHT22;12351;52.284;9.160;2022-11-24T06:50:59;8.10;99.90
24207;DHT22;12351;52.284;9.160;2022-11-24T06:53:46;8.10;99.90
24207;DHT22;12351;52.284;9.160;2022-11-24T06:56:34;8.10;99.90
24207;DHT22;12351;52.284;9.160;2022-11-24T06:59:22;8.10;99.90
24207;DHT22;12351;52.284;9.160;2022-11-24T07:02:10;8.10;99.90
24207;DHT22;12351;52.284;9.160;2022-11-24T07:04:57;8.10;99.90
24207;DHT22;12351;52.284;9.160;2022-11-24T07:07:44;8.10;99.90
24207;DHT22;12351;52.284;9.160;2022-11-24T07:10:32;8.20;99.90
24207;DHT22;12351;52.284;9.160;2022-11-24T07:13:19;8.20;99.90
24207;DHT22;12351;52.284;9.160;2022-11-24T07:18:57;8.20;99.90
24207;DHT22;12351;52.284;9.160;2022-11-24T07:21:45;8.30;99.90
24207;DHT22;12351;52.284;9.160;2022-11-24T07:24:32;8.30;99.90
24207;DHT22;12351;52.284;9.160;2022-11-24T07:27:19;8.20;99.90
24207;DHT22;12351;52.284;9.160;2022-11-24T07:30:07;8.20;99.90
24207;DHT22;12351;52.284;9.160;2022-11-24T07:32:57;8.20;99.90
24207;DHT22;12351;52.284;9.160;2022-11-24T07:35:44;8.20;99.90
24207;DHT22;12351;52.284;9.160;2022-11-24T07:38:32;8.20;99.90
24207;DHT22;12351;52.284;9.160;2022-11-24T07:41:20;8.20;99.90
24207;DHT22;12351;52.284;9.160;2022-11-24T07:44:07;8.20;99.90
24207;DHT22;12351;52.284;9.160;2022-11-24T07:46:54;8.30;99.90
24207;DHT22;12351;52.284;9.160;2022-11-24T07:49:42;8.30;99.90
24207;DHT22;12351;52.284;9.160;2022-11-24T07:52:29;8.30;99.90
24207;DHT22;12351;52.284;9.160;2022-11-24T07:55:16;8.30;99.90
24207;DHT22;12351;52.284;9.160;2022-11-24T07:58:03;8.30;99.90
24207;DHT22;12351;52.284;9.160;2022-11-24T08:00:50;8.30;99.90
24207;DHT22;12351;52.284;9.160;2022-11-24T08:03:37;8.30;99.90
24207;DHT22;12351;52.284;9.160;2022-11-24T08:06:27;8.30;99.90
24207;DHT22;12351;52.284;9.160;2022-11-24T08:09:14;8.30;99.90
24207;DHT22;12351;52.284;9.160;2022-11-24T08:12:01;8.30;99.90
24207;DHT22;12351;52.284;9.160;2022-11-24T08:14:49;8.30;99.90
24207;DHT22;12351;52.284;9.160;2022-11-24T08:17:37;8.30;99.90
24207;DHT22;12351;52.284;9.160;2022-11-24T08:20:24;8.30;99.90
24207;DHT22;12351;52.284;9.160;2022-11-24T08:23:11;8.20;99.90
24207;DHT22;12351;52.284;9.160;2022-11-24T08:25:58;8.20;99.90
24207;DHT22;12351;52.284;9.160;2022-11-24T08:28:52;8.20;99.90
24207;DHT22;12351;52.284;9.160;2022-11-24T08:31:38;8.30;99.90
24207;DHT22;12351;52.284;9.160;2022-11-24T08:34:25;8.30;99.90
24207;DHT22;12351;52.284;9.160;2022-11-24T08:37:12;8.40;99.90
24207;DHT22;12351;52.284;9.160;2022-11-24T08:39:59;8.40;99.90
24207;DHT22;12351;52.284;9.160;2022-11-24T08:42:46;8.40;99.90
24207;DHT22;12351;52.284;9.160;2022-11-24T08:45:33;8.50;99.90
24207;DHT22;12351;52.284;9.160;2022-11-24T08:48:21;8.50;99.90
24207;DHT22;12351;52.284;9.160;2022-11-24T08:51:10;8.50;99.90
24207;DHT22;12351;52.284;9.160;2022-11-24T08:53:59;8.60;99.90
24207;DHT22;12351;52.284;9.160;2022-11-24T08:56:48;8.60;99.90
24207;DHT22;12351;52.284;9.160;2022-11-24T08:59:36;8.60;99.90
24207;DHT22;12351;52.284;9.160;2022-11-24T09:02:23;8.50;99.90
24207;DHT22;12351;52.284;9.160;2022-11-24T09:05:10;8.60;99.90
24207;DHT22;12351;52.284;9.160;2022-11-24T09:07:57;8.60;99.90
24207;DHT22;12351;52.284;9.160;2022-11-24T09:10:45;8.70;99.90
24207;DHT22;12351;52.284;9.160;2022-11-24T09:13:32;8.70;99.90
24207;DHT22;12351;52.284;9.160;2022-11-24T09:16:22;8.70;99.90
24207;DHT22;12351;52.284;9.160;2022-11-24T09:19:10;8.80;99.90
24207;DHT22;12351;52.284;9.160;2022-11-24T09:21:57;8.80;99.90
24207;DHT22;12351;52.284;9.160;2022-11-24T09:24:44;8.70;99.90
24207;DHT22;12351;52.284;9.160;2022-11-24T09:27:32;8.70;99.90
24207;DHT22;12351;52.284;9.160;2022-11-24T09:30:19;8.70;99.90
24207;DHT22;12351;52.284;9.160;2022-11-24T09:33:06;8.70;99.90
24207;DHT22;12351;52.284;9.160;2022-11-24T09:35:53;8.80;99.90
24207;DHT22;12351;52.284;9.160;2022-11-24T09:38:41;8.80;99.90
24207;DHT22;12351;52.284;9.160;2022-11-24T09:50:03;9.10;99.90
24207;DHT22;12351;52.284;9.160;2022-11-24T09:55:43;9.10;99.90
24207;DHT22;12351;52.284;9.160;2022-11-24T10:07:04;9.20;99.90
24207;DHT22;12351;52.284;9.160;2022-11-24T10:34:59;9.10;99.90
24207;DHT22;12351;52.284;9.160;2022-11-24T10:40:40;9.20;99.90
24207;DHT22;12351;52.284;9.160;2022-11-24T10:43:27;9.20;99.90
24207;DHT22;12351;52.284;9.160;2022-11-24T10:46:21;9.30;99.90
24207;DHT22;12351;52.284;9.160;2022-11-24T10:49:05;9.30;99.90
24207;DHT22;12351;52.284;9.160;2022-11-24T10:54:34;9.30;99.90
24207;DHT22;12351;52.284;9.160;2022-11-24T11:03:20;9.30;99.90
24207;DHT22;12351;52.284;9.160;2022-11-24T11:05:56;9.30;99.90
24207;DHT22;12351;52.284;9.160;2022-11-24T11:08:44;9.30;99.90
24207;DHT22;12351;52.284;9.160;2022-11-24T11:11:33;9.30;99.90
24207;DHT22;12351;52.284;9.160;2022-11-24T11:20:04;9.40;99.90
24207;DHT22;12351;52.284;9.160;2022-11-24T11:22:51;9.40;99.90
24207;DHT22;12351;52.284;9.160;2022-11-24T11:25:43;9.40;99.90
24207;DHT22;12351;52.284;9.160;2022-11-24T11:28:30;9.40;99.90
24207;DHT22;12351;52.284;9.160;2022-11-24T11:31:19;9.40;99.90
24207;DHT22;12351;52.284;9.160;2022-11-24T11:36:57;9.50;99.90
24207;DHT22;12351;52.284;9.160;2022-11-24T11:39:47;9.40;99.90
24207;DHT22;12351;52.284;9.160;2022-11-24T11:42:40;9.40;99.90
24207;DHT22;12351;52.284;9.160;2022-11-24T11:45:27;9.30;99.90
24207;DHT22;12351;52.284;9.160;2022-11-24T11:54:02;9.30;99.90
24207;DHT22;12351;52.284;9.160;2022-11-24T11:56:46;9.40;99.90
24207;DHT22;12351;52.284;9.160;2022-11-24T12:08:10;9.30;99.90
24207;DHT22;12351;52.284;9.160;2022-11-24T12:19:21;9.20;99.90
24207;DHT22;12351;52.284;9.160;2022-11-24T12:27:53;9.10;99.90
24207;DHT22;12351;52.284;9.160;2022-11-24T12:30:41;9.20;99.90
24207;DHT22;12351;52.284;9.160;2022-11-24T12:50:26;9.20;99.90
24207;DHT22;12351;52.284;9.160;2022-11-24T12:53:16;9.20;99.90
24207;DHT22;12351;52.284;9.160;2022-11-24T12:56:07;9.20;99.90
24207;DHT22;12351;52.284;9.160;2022-11-24T12:58:59;9.10;99.90
24207;DHT22;12351;52.284;9.160;2022-11-24T13:04:42;9.00;99.90
24207;DHT22;12351;52.284;9.160;2022-11-24T13:13:10;9.00;99.90
24207;DHT22;12351;52.284;9.160;2022-11-24T13:16:01;9.00;99.90
24207;DHT22;12351;52.284;9.160;2022-11-24T13:24:31;9.00;99.90
24207;DHT22;12351;52.284;9.160;2022-11-24T13:27:24;9.00;99.90
24207;DHT22;12351;52.284;9.160;2022-11-24T13:47:06;8.90;99.90
24207;DHT22;12351;52.284;9.160;2022-11-24T13:49:53;8.90;99.90
24207;DHT22;12351;52.284;9.160;2022-11-24T13:52:42;8.90;99.90
24207;DHT22;12351;52.284;9.160;2022-11-24T13:55:33;8.90;99.90
24207;DHT22;12351;52.284;9.160;2022-11-24T14:09:39;8.90;99.90
24207;DHT22;12351;52.284;9.160;2022-11-24T14:12:27;8.90;99.90
24207;DHT22;12351;52.284;9.160;2022-11-24T14:20:57;8.80;99.90
24207;DHT22;12351;52.284;9.160;2022-11-24T14:23:48;8.80;99.90
24207;DHT22;12351;52.284;9.160;2022-11-24T14:26:38;8.80;99.90
24207;DHT22;12351;52.284;9.160;2022-11-24T14:29:26;8.70;99.90
24207;DHT22;12351;52.284;9.160;2022-11-24T14:32:15;8.70;99.90
24207;DHT22;12351;52.284;9.160;2022-11-24T14:37:53;8.70;99.90
24207;DHT22;12351;52.284;9.160;2022-11-24T14:43:31;8.80;99.90
24207;DHT22;12351;52.284;9.160;2022-11-24T14:46:19;8.70;99.90
24207;DHT22;12351;52.284;9.160;2022-11-24T14:49:06;8.70;99.90
24207;DHT22;12351;52.284;9.160;2022-11-24T14:51:56;8.70;99.90
24207;DHT22;12351;52.284;9.160;2022-11-24T14:54:47;8.70;99.90
24207;DHT22;12351;52.284;9.160;2022-11-24T14:57:36;8.70;99.90
24207;DHT22;12351;52.284;9.160;2022-11-24T15:05:59;8.70;99.90
24207;DHT22;12351;52.284;9.160;2022-11-24T15:08:48;8.70;99.90
24207;DHT22;12351;52.284;9.160;2022-11-24T15:11:36;8.70;99.90
24207;DHT22;12351;52.284;9.160;2022-11-24T15:17:16;8.60;99.90
24207;DHT22;12351;52.284;9.160;2022-11-24T15:25:45;8.60;99.90
24207;DHT22;12351;52.284;9.160;2022-11-24T15:28:32;8.60;99.90
24207;DHT22;12351;52.284;9.160;2022-11-24T15:31:20;8.60;99.90
24207;DHT22;12351;52.284;9.160;2022-11-24T15:34:11;8.50;99.90
24207;DHT22;12351;52.284;9.160;2022-11-24T15:36:58;8.50;99.90
24207;DHT22;12351;52.284;9.160;2022-11-24T15:39:45;8.50;99.90
24207;DHT22;12351;52.284;9.160;2022-11-24T15:42:32;8.50;99.90
24207;DHT22;12351;52.284;9.160;2022-11-24T15:45:23;8.50;99.90
24207;DHT22;12351;52.284;9.160;2022-11-24T15:48:12;8.40;99.90
24207;DHT22;12351;52.284;9.160;2022-11-24T15:51:02;8.40;99.90
24207;DHT22;12351;52.284;9.160;2022-11-24T15:53:52;8.40;99.90
24207;DHT22;12351;52.284;9.160;2022-11-24T15:56:40;8.30;99.90
24207;DHT22;12351;52.284;9.160;2022-11-24T15:59:29;8.20;99.90
24207;DHT22;12351;52.284;9.160;2022-11-24T16:02:17;8.20;99.90
24207;DHT22;12351;52.284;9.160;2022-11-24T16:05:07;8.10;99.90
24207;DHT22;12351;52.284;9.160;2022-11-24T16:07:55;8.10;99.90
24207;DHT22;12351;52.284;9.160;2022-11-24T16:10:43;8.10;99.90
24207;DHT22;12351;52.284;9.160;2022-11-24T16:13:30;8.00;99.90
24207;DHT22;12351;52.284;9.160;2022-11-24T16:16:17;8.00;99.90
24207;DHT22;12351;52.284;9.160;2022-11-24T16:19:05;7.90;99.90
24207;DHT22;12351;52.284;9.160;2022-11-24T16:21:52;7.90;99.90
24207;DHT22;12351;52.284;9.160;2022-11-24T16:24:39;7.80;99.90
24207;DHT22;12351;52.284;9.160;2022-11-24T16:27:26;7.80;99.90
24207;DHT22;12351;52.284;9.160;2022-11-24T16:30:14;7.80;99.90
24207;DHT22;12351;52.284;9.160;2022-11-24T16:33:03;7.80;99.90
24207;DHT22;12351;52.284;9.160;2022-11-24T16:35:53;7.70;99.90
24207;DHT22;12351;52.284;9.160;2022-11-24T16:38:42;7.60;99.90
24207;DHT22;12351;52.284;9.160;2022-11-24T16:41:29;7.60;99.90
24207;DHT22;12351;52.284;9.160;2022-11-24T16:44:16;7.70;99.90
24207;DHT22;12351;52.284;9.160;2022-11-24T16:47:04;7.70;99.90
24207;DHT22;12351;52.284;9.160;2022-11-24T16:49:51;7.70;99.90
24207;DHT22;12351;52.284;9.160;2022-11-24T16:52:38;7.70;99.90
24207;DHT22;12351;52.284;9.160;2022-11-24T16:55:26;7.70;99.90
24207;DHT22;12351;52.284;9.160;2022-11-24T16:58:16;7.80;99.90
24207;DHT22;12351;52.284;9.160;2022-11-24T17:01:04;7.80;99.90
24207;DHT22;12351;52.284;9.160;2022-11-24T17:03:52;7.80;99.90
24207;DHT22;12351;52.284;9.160;2022-11-24T17:06:39;7.90;99.90
24207;DHT22;12351;52.284;9.160;2022-11-24T17:09:27;7.90;99.90
24207;DHT22;12351;52.284;9.160;2022-11-24T17:12:14;7.90;99.90
24207;DHT22;12351;52.284;9.160;2022-11-24T17:15:01;7.90;99.90
24207;DHT22;12351;52.284;9.160;2022-11-24T17:17:48;7.90;99.90
24207;DHT22;12351;52.284;9.160;2022-11-24T17:20:35;7.90;99.90
24207;DHT22;12351;52.284;9.160;2022-11-24T17:23:23;7.80;99.90
24207;DHT22;12351;52.284;9.160;2022-11-24T17:26:12;7.80;99.90
24207;DHT22;12351;52.284;9.160;2022-11-24T17:28:59;7.80;99.90
24207;DHT22;12351;52.284;9.160;2022-11-24T17:31:47;7.80;99.90
24207;DHT22;12351;52.284;9.160;2022-11-24T17:34:34;7.80;99.90
24207;DHT22;12351;52.284;9.160;2022-11-24T17:37:21;7.80;99.90
24207;DHT22;12351;52.284;9.160;2022-11-24T17:40:09;7.80;99.90
24207;DHT22;12351;52.284;9.160;2022-11-24T17:42:57;7.70;99.90
24207;DHT22;12351;52.284;9.160;2022-11-24T17:45:52;7.70;99.90
24207;DHT22;12351;52.284;9.160;2022-11-24T17:48:35;7.70;99.90
24207;DHT22;12351;52.284;9.160;2022-11-24T17:51:24;7.60;99.90
24207;DHT22;12351;52.284;9.160;2022-11-24T17:54:11;7.70;99.90
24207;DHT22;12351;52.284;9.160;2022-11-24T17:56:58;7.60;99.90
24207;DHT22;12351;52.284;9.160;2022-11-24T17:59:46;7.60;99.90
24207;DHT22;12351;52.284;9.160;2022-11-24T18:02:36;7.60;99.90
24207;DHT22;12351;52.284;9.160;2022-11-24T18:05:24;7.60;99.90
24207;DHT22;12351;52.284;9.160;2022-11-24T18:08:12;7.60;99.90
24207;DHT22;12351;52.284;9.160;2022-11-24T18:11:02;7.50;99.90
24207;DHT22;12351;52.284;9.160;2022-11-24T18:13:51;7.50;99.90
24207;DHT22;12351;52.284;9.160;2022-11-24T18:16:41;7.50;99.90
24207;DHT22;12351;52.284;9.160;2022-11-24T18:19:28;7.50;99.90
24207;DHT22;12351;52.284;9.160;2022-11-24T18:22:15;7.40;99.90
24207;DHT22;12351;52.284;9.160;2022-11-24T18:25:04;7.40;99.90
24207;DHT22;12351;52.284;9.160;2022-11-24T18:27:52;7.40;99.90
24207;DHT22;12351;52.284;9.160;2022-11-24T18:30:39;7.40;99.90
24207;DHT22;12351;52.284;9.160;2022-11-24T18:33:26;7.40;99.90
24207;DHT22;12351;52.284;9.160;2022-11-24T18:36:16;7.50;99.90
24207;DHT22;12351;52.284;9.160;2022-11-24T18:39:06;7.40;99.90
24207;DHT22;12351;52.284;9.160;2022-11-24T18:41:54;7.40;99.90
24207;DHT22;12351;52.284;9.160;2022-11-24T18:44:42;7.40;99.90
24207;DHT22;12351;52.284;9.160;2022-11-24T18:47:29;7.40;99.90
24207;DHT22;12351;52.284;9.160;2022-11-24T18:50:16;7.40;99.90
24207;DHT22;12351;52.284;9.160;2022-11-24T18:58:43;7.30;99.90
24207;DHT22;12351;52.284;9.160;2022-11-24T19:01:30;7.30;99.90
24207;DHT22;12351;52.284;9.160;2022-11-24T19:04:17;7.30;99.90
24207;DHT22;12351;52.284;9.160;2022-11-24T19:07:04;7.20;99.90
24207;DHT22;12351;52.284;9.160;2022-11-24T19:09:51;7.20;99.90
24207;DHT22;12351;52.284;9.160;2022-11-24T19:12:38;7.20;99.90
24207;DHT22;12351;52.284;9.160;2022-11-24T19:15:25;7.30;99.90
24207;DHT22;12351;52.284;9.160;2022-11-24T19:18:13;7.30;99.90
24207;DHT22;12351;52.284;9.160;2022-11-24T19:21:00;7.20;99.90
24207;DHT22;12351;52.284;9.160;2022-11-24T19:23:47;7.20;99.90
24207;DHT22;12351;52.284;9.160;2022-11-24T19:26:35;7.30;99.90
24207;DHT22;12351;52.284;9.160;2022-11-24T19:29:22;7.20;99.90
24207;DHT22;12351;52.284;9.160;2022-11-24T19:32:09;7.30;99.90
24207;DHT22;12351;52.284;9.160;2022-11-24T19:34:56;7.20;99.90
24207;DHT22;12351;52.284;9.160;2022-11-24T19:37:45;7.20;99.90
24207;DHT22;12351;52.284;9.160;2022-11-24T19:40:32;7.20;99.90
24207;DHT22;12351;52.284;9.160;2022-11-24T19:43:19;7.20;99.90
24207;DHT22;12351;52.284;9.160;2022-11-24T19:46:09;7.30;99.90
24207;DHT22;12351;52.284;9.160;2022-11-24T19:48:59;7.30;99.90
24207;DHT22;12351;52.284;9.160;2022-11-24T19:51:47;7.20;99.90
24207;DHT22;12351;52.284;9.160;2022-11-24T19:54:35;7.30;99.90
24207;DHT22;12351;52.284;9.160;2022-11-24T19:57:22;7.30;99.90
24207;DHT22;12351;52.284;9.160;2022-11-24T20:00:11;7.30;99.90
24207;DHT22;12351;52.284;9.160;2022-11-24T20:02:59;7.30;99.90
24207;DHT22;12351;52.284;9.160;2022-11-24T20:08:37;7.30;99.90
24207;DHT22;12351;52.284;9.160;2022-11-24T20:11:25;7.30;99.90
24207;DHT22;12351;52.284;9.160;2022-11-24T20:14:14;7.30;99.90
24207;DHT22;12351;52.284;9.160;2022-11-24T20:17:03;7.30;99.90
24207;DHT22;12351;52.284;9.160;2022-11-24T20:19:51;7.20;99.90
24207;DHT22;12351;52.284;9.160;2022-11-24T20:22:39;7.30;99.90
24207;DHT22;12351;52.284;9.160;2022-11-24T20:25:26;7.30;99.90
24207;DHT22;12351;52.284;9.160;2022-11-24T20:28:14;7.30;99.90
24207;DHT22;12351;52.284;9.160;2022-11-24T20:31:04;7.30;99.90
24207;DHT22;12351;52.284;9.160;2022-11-24T20:33:51;7.20;99.90
24207;DHT22;12351;52.284;9.160;2022-11-24T20:36:40;7.30;99.90
24207;DHT22;12351;52.284;9.160;2022-11-24T20:39:28;7.30;99.90
24207;DHT22;12351;52.284;9.160;2022-11-24T20:42:15;7.30;99.90
24207;DHT22;12351;52.284;9.160;2022-11-24T20:45:03;7.30;99.90
24207;DHT22;12351;52.284;9.160;2022-11-24T20:47:49;7.30;99.90
24207;DHT22;12351;52.284;9.160;2022-11-24T20:50:37;7.20;99.90
24207;DHT22;12351;52.284;9.160;2022-11-24T20:53:23;7.20;99.90
24207;DHT22;12351;52.284;9.160;2022-11-24T20:56:15;7.30;99.90
24207;DHT22;12351;52.284;9.160;2022-11-24T20:59:00;7.30;99.90
24207;DHT22;12351;52.284;9.160;2022-11-24T21:01:49;7.30;99.90
24207;DHT22;12351;52.284;9.160;2022-11-24T21:04:37;7.20;99.90
24207;DHT22;12351;52.284;9.160;2022-11-24T21:07:24;7.20;99.90
24207;DHT22;12351;52.284;9.160;2022-11-24T21:10:11;7.20;99.90
24207;DHT22;12351;52.284;9.160;2022-11-24T21:12:58;7.20;99.90
24207;DHT22;12351;52.284;9.160;2022-11-24T21:15:46;7.10;99.90